Time;durP1;ratioP1;P1;durP2;ratioP2;P2;SDS_P1;SDS_P2;PMS_P1;PMS_P2;Temp;Humidity;BMP_temperature;BMP_pressure;BME280_temperature;BME280_humidity;BME280_pressure;Samples;Min_cycle;Max_cycle;Signal;HPM_P1;HPM_P2
2021/10/03 00:00:43;;;;;;;;;;;16.80;99.90;;;;;;5034066;28;19909;-85
2021/10/03 00:03:10;;;;;;;;;;;16.70;99.90;;;;;;5034247;28;20036;-85
2021/10/03 00:05:36;;;;;;;;;;;16.70;99.90;;;;;;5053212;28;20446;-87
2021/10/03 00:08:04;;;;;;;;;;;16.70;99.90;;;;;;5048681;28;19917;-86
2021/10/03 00:10:29;;;;;;;;;;;16.70;99.90;;;;;;5034870;28;20266;-85
2021/10/03 00:12:55;;;;;;;;;;;16.70;99.90;;;;;;5047301;28;19923;-84
2021/10/03 00:15:21;;;;;;;;;;;16.80;99.90;;;;;;5034161;28;19937;-86
2021/10/03 00:17:48;;;;;;;;;;;16.80;99.90;;;;;;5037887;28;19962;-87
2021/10/03 00:20:14;;;;;;;;;;;16.80;99.90;;;;;;5050593;28;19919;-87
2021/10/03 00:22:40;;;;;;;;;;;16.90;99.90;;;;;;5047644;28;19928;-87
2021/10/03 00:25:07;;;;;;;;;;;16.90;99.90;;;;;;5034993;28;20035;-85
2021/10/03 00:27:32;;;;;;;;;;;16.90;99.90;;;;;;5040183;28;20003;-87
2021/10/03 00:29:58;;;;;;;;;;;16.90;99.90;;;;;;5042135;28;20357;-84
2021/10/03 00:32:23;;;;;;;;;;;16.90;99.90;;;;;;5034409;28;19921;-86
2021/10/03 00:34:49;;;;;;;;;;;16.90;99.90;;;;;;5045845;28;19913;-86
2021/10/03 00:37:15;;;;;;;;;;;16.90;99.90;;;;;;5039519;28;19913;-84
2021/10/03 00:39:41;;;;;;;;;;;16.90;99.90;;;;;;5041232;28;20285;-89
2021/10/03 00:42:07;;;;;;;;;;;16.90;99.90;;;;;;5038172;28;19914;-89
2021/10/03 00:44:32;;;;;;;;;;;16.90;99.90;;;;;;5045605;28;19919;-87
2021/10/03 00:46:58;;;;;;;;;;;16.90;99.90;;;;;;5036879;28;19917;-87
2021/10/03 00:49:24;;;;;;;;;;;16.90;99.90;;;;;;5044221;28;20008;-87
2021/10/03 00:51:49;;;;;;;;;;;17.00;99.90;;;;;;5037355;28;19932;-87
2021/10/03 00:54:15;;;;;;;;;;;17.00;99.90;;;;;;5043005;28;19917;-87
2021/10/03 00:56:40;;;;;;;;;;;17.00;99.90;;;;;;5057483;28;19912;-87
2021/10/03 00:59:06;;;;;;;;;;;16.90;99.90;;;;;;5046591;28;19989;-84
2021/10/03 01:01:32;;;;;;;;;;;17.00;99.90;;;;;;5036189;28;19982;-86
2021/10/03 01:03:58;;;;;;;;;;;17.00;99.90;;;;;;5033492;28;19913;-83
2021/10/03 01:06:24;;;;;;;;;;;17.00;99.90;;;;;;5043972;28;20418;-83
2021/10/03 01:08:49;;;;;;;;;;;17.00;99.90;;;;;;5045666;28;20336;-84
2021/10/03 01:11:15;;;;;;;;;;;16.90;99.90;;;;;;5033614;28;19920;-82
2021/10/03 01:13:40;;;;;;;;;;;16.80;99.90;;;;;;5046669;28;20396;-83
2021/10/03 01:16:07;;;;;;;;;;;16.80;99.90;;;;;;5044353;28;19928;-82
2021/10/03 01:18:33;;;;;;;;;;;16.80;99.90;;;;;;5033603;28;19995;-82
2021/10/03 01:21:03;;;;;;;;;;;16.70;99.90;;;;;;5035933;28;19913;-84
2021/10/03 01:23:28;;;;;;;;;;;16.70;99.90;;;;;;5041010;28;19913;-84
2021/10/03 01:25:54;;;;;;;;;;;16.70;99.90;;;;;;5068636;28;19972;-82
2021/10/03 01:28:19;;;;;;;;;;;16.70;99.90;;;;;;5055999;28;19917;-83
2021/10/03 01:30:47;;;;;;;;;;;16.60;99.90;;;;;;5067021;28;19913;-81
2021/10/03 01:33:12;;;;;;;;;;;16.50;99.90;;;;;;5071649;28;19921;-82
2021/10/03 01:35:38;;;;;;;;;;;16.50;99.90;;;;;;5060922;28;19936;-81
2021/10/03 01:38:05;;;;;;;;;;;16.40;99.90;;;;;;5058059;28;19917;-81
2021/10/03 01:40:30;;;;;;;;;;;16.40;99.90;;;;;;5064217;28;19900;-81
2021/10/03 01:42:57;;;;;;;;;;;16.30;99.90;;;;;;5069330;28;19931;-81
2021/10/03 01:45:24;;;;;;;;;;;16.30;99.90;;;;;;5071741;28;19953;-82
2021/10/03 01:48:07;;;;;;;;;;;16.20;99.90;;;;;;5060271;28;19927;-81
2021/10/03 01:50:53;;;;;;;;;;;16.20;99.90;;;;;;5058070;28;19949;-80
2021/10/03 01:53:22;;;;;;;;;;;16.20;99.90;;;;;;5063179;28;19940;-80
2021/10/03 01:55:48;;;;;;;;;;;16.10;99.90;;;;;;5058660;28;19982;-80
2021/10/03 01:58:15;;;;;;;;;;;16.00;99.90;;;;;;5058640;28;19902;-81
2021/10/03 02:00:42;;;;;;;;;;;16.00;99.90;;;;;;5059807;28;19901;-81
2021/10/03 02:03:08;;;;;;;;;;;16.00;99.90;;;;;;5058473;28;19902;-81
2021/10/03 02:05:35;;;;;;;;;;;16.00;99.90;;;;;;5057876;28;19915;-80
2021/10/03 02:08:00;;;;;;;;;;;15.90;99.90;;;;;;5057763;28;19917;-80
2021/10/03 02:10:26;;;;;;;;;;;15.90;99.90;;;;;;5048240;28;20413;-80
2021/10/03 02:12:51;;;;;;;;;;;15.90;99.90;;;;;;5039605;28;19913;-81
2021/10/03 02:15:19;;;;;;;;;;;15.90;99.90;;;;;;5040496;28;19917;-81
2021/10/03 02:17:45;;;;;;;;;;;15.90;99.90;;;;;;5036120;28;19955;-82
2021/10/03 02:20:10;;;;;;;;;;;15.80;99.90;;;;;;5037880;28;20230;-82
2021/10/03 02:22:37;;;;;;;;;;;15.90;99.90;;;;;;5037613;28;19924;-82
2021/10/03 02:25:02;;;;;;;;;;;15.90;99.90;;;;;;5036007;28;19929;-80
2021/10/03 02:27:28;;;;;;;;;;;15.90;99.90;;;;;;5038357;28;19913;-81
2021/10/03 02:32:38;;;;;;;;;;;15.90;99.90;;;;;;5042146;28;19920;-82
2021/10/03 02:35:06;;;;;;;;;;;15.70;99.90;;;;;;5051298;28;19913;-82
2021/10/03 02:37:31;;;;;;;;;;;15.60;99.90;;;;;;5049813;28;19958;-81
2021/10/03 02:39:57;;;;;;;;;;;15.70;99.90;;;;;;5050171;28;20316;-81
2021/10/03 02:42:22;;;;;;;;;;;15.60;99.90;;;;;;5050867;28;19913;-82
2021/10/03 02:44:48;;;;;;;;;;;15.60;99.90;;;;;;5036649;28;20285;-82
2021/10/03 02:47:13;;;;;;;;;;;15.40;99.90;;;;;;5033102;28;19924;-81
2021/10/03 02:49:40;;;;;;;;;;;15.40;99.90;;;;;;5031806;28;19921;-82
2021/10/03 02:52:06;;;;;;;;;;;15.20;99.90;;;;;;5033337;28;19917;-82
2021/10/03 02:54:32;;;;;;;;;;;15.20;99.90;;;;;;5032906;28;20383;-83
2021/10/03 02:56:58;;;;;;;;;;;15.10;99.90;;;;;;5032267;28;20000;-83
2021/10/03 02:59:23;;;;;;;;;;;15.10;99.90;;;;;;5032921;28;19909;-82
2021/10/03 03:01:49;;;;;;;;;;;15.10;99.90;;;;;;5033291;28;19913;-82
2021/10/03 03:04:14;;;;;;;;;;;15.10;99.90;;;;;;5034898;28;20377;-83
2021/10/03 03:06:40;;;;;;;;;;;15.10;99.90;;;;;;5037933;28;19917;-82
2021/10/03 03:09:05;;;;;;;;;;;15.10;99.90;;;;;;5045119;28;19924;-82
2021/10/03 03:11:31;;;;;;;;;;;15.00;99.90;;;;;;5036505;28;19921;-82
2021/10/03 03:13:56;;;;;;;;;;;14.90;99.90;;;;;;5034791;28;20022;-82
2021/10/03 03:16:22;;;;;;;;;;;14.90;99.90;;;;;;5036142;28;19924;-82
2021/10/03 03:18:47;;;;;;;;;;;14.90;99.90;;;;;;5035929;28;19909;-82
2021/10/03 03:21:13;;;;;;;;;;;14.90;99.90;;;;;;5037487;28;20369;-83
2021/10/03 03:23:38;;;;;;;;;;;14.80;99.90;;;;;;5055084;28;19999;-82
2021/10/03 03:26:04;;;;;;;;;;;14.80;99.90;;;;;;5043380;28;19928;-82
2021/10/03 03:28:30;;;;;;;;;;;14.70;99.90;;;;;;5034643;28;19913;-82
2021/10/03 03:30:55;;;;;;;;;;;14.70;99.90;;;;;;5040552;28;19958;-81
2021/10/03 03:33:21;;;;;;;;;;;14.70;99.90;;;;;;5050472;28;19913;-82
2021/10/03 03:35:46;;;;;;;;;;;14.70;99.90;;;;;;5034616;28;19913;-82
2021/10/03 03:38:12;;;;;;;;;;;14.70;99.90;;;;;;5036913;28;19935;-82
2021/10/03 03:40:38;;;;;;;;;;;14.70;99.90;;;;;;5040979;28;19913;-82
2021/10/03 03:43:03;;;;;;;;;;;14.70;99.90;;;;;;5035611;28;19919;-82
2021/10/03 03:45:29;;;;;;;;;;;14.60;99.90;;;;;;5053639;28;19919;-82
2021/10/03 03:47:56;;;;;;;;;;;14.70;99.90;;;;;;5038479;28;20003;-82
2021/10/03 03:50:21;;;;;;;;;;;14.70;99.90;;;;;;5034115;28;20379;-82
2021/10/03 03:52:47;;;;;;;;;;;14.60;99.90;;;;;;5035570;28;19921;-82
2021/10/03 03:55:12;;;;;;;;;;;14.60;99.90;;;;;;5034273;28;19920;-82
2021/10/03 03:57:38;;;;;;;;;;;14.60;99.90;;;;;;5036620;28;20010;-82
2021/10/03 04:00:05;;;;;;;;;;;14.60;99.90;;;;;;5034072;28;19913;-81
2021/10/03 04:02:31;;;;;;;;;;;14.50;99.90;;;;;;5035101;28;19913;-81
2021/10/03 04:04:57;;;;;;;;;;;14.50;99.90;;;;;;5035005;28;19909;-82
2021/10/03 04:07:23;;;;;;;;;;;14.50;99.90;;;;;;5039783;28;20375;-83
2021/10/03 04:09:49;;;;;;;;;;;14.50;99.90;;;;;;5049603;28;19932;-83
2021/10/03 04:12:15;;;;;;;;;;;14.50;99.90;;;;;;5033375;28;19917;-83
2021/10/03 04:14:40;;;;;;;;;;;14.50;99.90;;;;;;5035034;28;19919;-83
2021/10/03 04:17:06;;;;;;;;;;;14.50;99.90;;;;;;5042132;28;19912;-83
2021/10/03 04:19:31;;;;;;;;;;;14.50;99.90;;;;;;5054791;28;19981;-83
2021/10/03 04:21:57;;;;;;;;;;;14.50;99.90;;;;;;5047901;28;20361;-82
2021/10/03 04:24:23;;;;;;;;;;;14.50;99.90;;;;;;5053131;28;19999;-83
2021/10/03 04:26:48;;;;;;;;;;;14.50;99.90;;;;;;5034919;28;19924;-83
2021/10/03 04:29:14;;;;;;;;;;;14.50;99.90;;;;;;5035020;28;20254;-83
2021/10/03 04:31:40;;;;;;;;;;;14.50;99.90;;;;;;5034405;28;19921;-83
2021/10/03 04:34:05;;;;;;;;;;;14.50;99.90;;;;;;5037358;28;20369;-83
2021/10/03 04:36:31;;;;;;;;;;;14.50;99.90;;;;;;5034405;28;19909;-83
2021/10/03 04:38:56;;;;;;;;;;;14.50;99.90;;;;;;5034585;28;20332;-82
2021/10/03 04:41:22;;;;;;;;;;;14.50;99.90;;;;;;5033268;28;19945;-82
2021/10/03 04:43:47;;;;;;;;;;;14.50;99.90;;;;;;5034126;28;20373;-82
2021/10/03 04:46:13;;;;;;;;;;;14.60;99.90;;;;;;5034534;28;19917;-81
2021/10/03 04:48:38;;;;;;;;;;;14.50;99.90;;;;;;5049424;28;19913;-81
2021/10/03 04:51:04;;;;;;;;;;;14.60;99.90;;;;;;5033010;28;19913;-81
2021/10/03 04:53:29;;;;;;;;;;;14.60;99.90;;;;;;5033132;28;20305;-81
2021/10/03 04:55:55;;;;;;;;;;;14.60;99.90;;;;;;5034437;28;20293;-81
2021/10/03 04:58:20;;;;;;;;;;;14.50;99.90;;;;;;5032638;28;19913;-81
2021/10/03 05:00:46;;;;;;;;;;;14.50;99.90;;;;;;5053301;28;19913;-81
2021/10/03 05:03:11;;;;;;;;;;;14.50;99.90;;;;;;5037781;28;19919;-81
2021/10/03 05:05:37;;;;;;;;;;;14.50;99.90;;;;;;5035393;28;20016;-81
2021/10/03 05:08:03;;;;;;;;;;;14.50;99.90;;;;;;5043251;28;19913;-81
2021/10/03 05:10:28;;;;;;;;;;;14.40;99.90;;;;;;5043216;28;19913;-81
2021/10/03 05:12:54;;;;;;;;;;;14.40;99.90;;;;;;5044983;28;19913;-81
2021/10/03 05:15:19;;;;;;;;;;;14.40;99.90;;;;;;5039726;28;19912;-80
2021/10/03 05:17:45;;;;;;;;;;;14.40;99.90;;;;;;5052922;28;19916;-81
2021/10/03 05:20:10;;;;;;;;;;;14.50;99.90;;;;;;5052920;28;19913;-81
2021/10/03 05:22:36;;;;;;;;;;;14.50;99.90;;;;;;5037201;28;19913;-81
2021/10/03 05:25:03;;;;;;;;;;;14.50;99.90;;;;;;5051697;28;19942;-81
2021/10/03 05:27:28;;;;;;;;;;;14.40;99.90;;;;;;5033375;28;19917;-81
2021/10/03 05:29:54;;;;;;;;;;;14.40;99.90;;;;;;5033462;28;19936;-80
2021/10/03 05:32:19;;;;;;;;;;;14.30;99.90;;;;;;5034622;28;19920;-80
2021/10/03 05:34:45;;;;;;;;;;;14.10;99.90;;;;;;5039518;28;19972;-80
2021/10/03 05:37:10;;;;;;;;;;;14.00;99.90;;;;;;5034792;28;20267;-80
2021/10/03 05:39:36;;;;;;;;;;;14.00;99.90;;;;;;5040606;28;19976;-80
2021/10/03 05:42:02;;;;;;;;;;;13.90;99.90;;;;;;5054287;28;20417;-81
2021/10/03 05:44:27;;;;;;;;;;;13.90;99.90;;;;;;5053773;28;19940;-81
2021/10/03 05:46:53;;;;;;;;;;;13.90;99.90;;;;;;5056593;28;20527;-80
2021/10/03 05:49:18;;;;;;;;;;;13.90;99.90;;;;;;5069867;28;19917;-80
2021/10/03 05:51:44;;;;;;;;;;;13.90;99.90;;;;;;5067918;28;19905;-80
2021/10/03 05:54:09;;;;;;;;;;;13.90;99.90;;;;;;5070538;28;19958;-80
2021/10/03 05:56:35;;;;;;;;;;;13.80;99.90;;;;;;5067665;28;19913;-80
2021/10/03 05:59:01;;;;;;;;;;;13.80;99.90;;;;;;5057766;28;19897;-80
2021/10/03 06:01:28;;;;;;;;;;;13.70;99.90;;;;;;5057894;28;19908;-81
2021/10/03 06:03:55;;;;;;;;;;;13.70;99.90;;;;;;5058469;28;19927;-80
2021/10/03 06:06:20;;;;;;;;;;;13.70;99.90;;;;;;5057467;28;19931;-79
2021/10/03 06:08:46;;;;;;;;;;;13.60;99.90;;;;;;5058293;28;19901;-80
2021/10/03 06:11:11;;;;;;;;;;;13.60;99.90;;;;;;5069360;28;19928;-79
2021/10/03 06:13:38;;;;;;;;;;;13.50;99.90;;;;;;5066856;28;19925;-81
2021/10/03 06:16:03;;;;;;;;;;;13.50;99.90;;;;;;5070899;28;20009;-80
2021/10/03 06:18:29;;;;;;;;;;;13.50;99.90;;;;;;5057405;28;19898;-81
2021/10/03 06:20:54;;;;;;;;;;;13.50;99.90;;;;;;5058567;28;19897;-79
2021/10/03 06:23:20;;;;;;;;;;;13.50;99.90;;;;;;5048103;28;19924;-80
2021/10/03 06:25:45;;;;;;;;;;;13.50;99.90;;;;;;5036117;28;19960;-79
2021/10/03 06:28:12;;;;;;;;;;;13.50;99.90;;;;;;5036486;28;19971;-80
2021/10/03 06:30:38;;;;;;;;;;;13.50;99.90;;;;;;5038908;28;19935;-80
2021/10/03 06:33:04;;;;;;;;;;;13.50;99.90;;;;;;5054686;28;19928;-80
2021/10/03 06:35:29;;;;;;;;;;;13.50;99.90;;;;;;5035792;28;20004;-80
2021/10/03 06:37:55;;;;;;;;;;;13.50;99.90;;;;;;5057429;28;19951;-80
2021/10/03 06:40:21;;;;;;;;;;;13.50;99.90;;;;;;5041807;28;19967;-78
2021/10/03 06:42:47;;;;;;;;;;;13.50;99.90;;;;;;5057762;28;19921;-79
2021/10/03 06:45:12;;;;;;;;;;;13.40;99.90;;;;;;5043059;28;19913;-79
2021/10/03 06:47:38;;;;;;;;;;;13.40;99.90;;;;;;5034879;28;19913;-79
2021/10/03 06:50:04;;;;;;;;;;;13.40;99.90;;;;;;5049132;28;19916;-80
2021/10/03 06:52:30;;;;;;;;;;;13.30;99.90;;;;;;5036805;28;20001;-80
2021/10/03 06:54:56;;;;;;;;;;;13.20;99.90;;;;;;5049910;28;20397;-80
2021/10/03 06:57:21;;;;;;;;;;;13.00;99.90;;;;;;5037779;28;19913;-79
2021/10/03 06:59:47;;;;;;;;;;;13.00;99.90;;;;;;5044387;28;19913;-80
2021/10/03 07:02:17;;;;;;;;;;;13.00;99.90;;;;;;5055083;28;20258;-79
2021/10/03 07:04:42;;;;;;;;;;;13.00;99.90;;;;;;5037893;28;19923;-79
2021/10/03 07:07:08;;;;;;;;;;;13.00;99.90;;;;;;5036725;28;19917;-79
2021/10/03 07:09:33;;;;;;;;;;;13.00;99.90;;;;;;5039426;28;19913;-79
2021/10/03 07:11:59;;;;;;;;;;;13.00;99.90;;;;;;5040682;28;19913;-79
2021/10/03 07:14:24;;;;;;;;;;;13.00;99.90;;;;;;5039656;28;19917;-79
2021/10/03 07:16:50;;;;;;;;;;;13.00;99.90;;;;;;5037037;28;19920;-79
2021/10/03 07:19:15;;;;;;;;;;;13.00;99.90;;;;;;5036523;28;20289;-79
2021/10/03 07:21:41;;;;;;;;;;;13.00;99.90;;;;;;5035927;28;19945;-79
2021/10/03 07:24:06;;;;;;;;;;;12.90;99.90;;;;;;5035768;28;20323;-79
2021/10/03 07:26:32;;;;;;;;;;;12.80;99.90;;;;;;5036245;28;19925;-79
2021/10/03 07:28:58;;;;;;;;;;;12.80;99.90;;;;;;5036019;28;19909;-80
2021/10/03 07:31:23;;;;;;;;;;;12.90;99.90;;;;;;5039506;28;19913;-80
2021/10/03 07:33:49;;;;;;;;;;;13.00;99.90;;;;;;5043145;28;19909;-80
2021/10/03 07:36:19;;;;;;;;;;;13.10;99.90;;;;;;5053214;28;19913;-80
2021/10/03 07:38:45;;;;;;;;;;;13.20;99.90;;;;;;5052799;28;20361;-80
2021/10/03 07:41:10;;;;;;;;;;;13.20;99.90;;;;;;5053696;28;20446;-80
2021/10/03 07:43:36;;;;;;;;;;;13.30;99.90;;;;;;5055748;28;19944;-80
2021/10/03 07:46:02;;;;;;;;;;;13.30;99.90;;;;;;5052143;28;19970;-80
2021/10/03 07:48:27;;;;;;;;;;;13.30;99.90;;;;;;5054935;28;19909;-80
2021/10/03 07:50:53;;;;;;;;;;;13.30;99.90;;;;;;5045607;28;19913;-80
2021/10/03 07:53:18;;;;;;;;;;;13.40;99.90;;;;;;5045019;28;19913;-80
2021/10/03 07:55:45;;;;;;;;;;;13.40;99.90;;;;;;5035443;28;19913;-79
2021/10/03 07:58:10;;;;;;;;;;;13.30;99.90;;;;;;5036553;28;20001;-80
2021/10/03 08:00:36;;;;;;;;;;;13.30;99.90;;;;;;5051847;28;19994;-80
2021/10/03 08:03:02;;;;;;;;;;;13.40;99.90;;;;;;5039601;28;19913;-81
2021/10/03 08:05:28;;;;;;;;;;;13.30;99.90;;;;;;5043898;28;20273;-79
2021/10/03 08:07:54;;;;;;;;;;;13.30;99.90;;;;;;5043167;28;19975;-80
2021/10/03 08:10:19;;;;;;;;;;;13.20;99.90;;;;;;5043971;28;20343;-80
2021/10/03 08:12:47;;;;;;;;;;;13.20;99.90;;;;;;5053542;28;19912;-81
2021/10/03 08:15:12;;;;;;;;;;;13.20;99.90;;;;;;5053757;28;19974;-80
2021/10/03 08:17:38;;;;;;;;;;;13.20;99.90;;;;;;5049671;28;19913;-81
2021/10/03 08:20:05;;;;;;;;;;;13.20;99.90;;;;;;5035153;28;19960;-80
2021/10/03 08:22:31;;;;;;;;;;;13.20;99.90;;;;;;5034687;28;19921;-79
2021/10/03 08:24:56;;;;;;;;;;;13.30;99.90;;;;;;5044024;28;19917;-80
2021/10/03 08:27:22;;;;;;;;;;;13.30;99.90;;;;;;5068495;28;19947;-79
2021/10/03 08:29:47;;;;;;;;;;;13.30;99.90;;;;;;5036199;28;19917;-79
2021/10/03 08:32:13;;;;;;;;;;;13.30;99.90;;;;;;5034915;28;20285;-80
2021/10/03 08:34:38;;;;;;;;;;;13.40;99.90;;;;;;5045520;28;19920;-80
2021/10/03 08:37:04;;;;;;;;;;;13.40;99.90;;;;;;5036143;28;19909;-80
2021/10/03 08:39:29;;;;;;;;;;;13.50;99.90;;;;;;5041851;28;19913;-80
2021/10/03 08:41:55;;;;;;;;;;;13.50;99.90;;;;;;5035550;28;19917;-81
2021/10/03 08:44:21;;;;;;;;;;;13.40;99.90;;;;;;5042525;28;19920;-80
2021/10/03 08:46:47;;;;;;;;;;;13.40;99.90;;;;;;5053904;28;19917;-80
2021/10/03 08:49:12;;;;;;;;;;;13.30;99.90;;;;;;5052601;28;19920;-81
2021/10/03 08:51:38;;;;;;;;;;;13.30;99.90;;;;;;5052418;28;19913;-80
2021/10/03 08:54:04;;;;;;;;;;;13.30;99.90;;;;;;5042368;28;20293;-80
2021/10/03 08:56:29;;;;;;;;;;;13.30;99.90;;;;;;5039639;28;19913;-80
2021/10/03 08:58:55;;;;;;;;;;;13.30;99.90;;;;;;5044712;28;19916;-81
2021/10/03 09:01:21;;;;;;;;;;;13.40;99.90;;;;;;5034161;28;20324;-81
2021/10/03 09:03:46;;;;;;;;;;;13.40;99.90;;;;;;5034370;28;19920;-81
2021/10/03 09:06:12;;;;;;;;;;;13.40;99.90;;;;;;5038709;28;19921;-81
2021/10/03 09:08:39;;;;;;;;;;;13.50;99.90;;;;;;5033785;28;20281;-81
2021/10/03 09:11:08;;;;;;;;;;;13.50;99.90;;;;;;5045560;28;19921;-80
2021/10/03 09:13:34;;;;;;;;;;;13.50;99.90;;;;;;5045400;28;20341;-81
2021/10/03 09:16:25;;;;;;;;;;;13.50;99.90;;;;;;5033759;28;19921;-81
2021/10/03 09:18:54;;;;;;;;;;;13.60;99.90;;;;;;5030616;28;19916;-81
2021/10/03 09:21:28;;;;;;;;;;;13.50;99.90;;;;;;5051945;28;19938;-81
2021/10/03 09:24:01;;;;;;;;;;;13.50;99.90;;;;;;5049505;28;19912;-81
2021/10/03 09:26:27;;;;;;;;;;;13.60;99.90;;;;;;5033587;28;20339;-81
2021/10/03 09:28:55;;;;;;;;;;;13.60;99.90;;;;;;5032479;28;20135;-80
2021/10/03 09:31:21;;;;;;;;;;;13.70;99.90;;;;;;5037909;28;19913;-82
2021/10/03 09:33:48;;;;;;;;;;;13.70;99.90;;;;;;5036021;28;19909;-81
2021/10/03 09:36:18;;;;;;;;;;;13.80;99.90;;;;;;5045525;28;19912;-81
2021/10/03 09:38:48;;;;;;;;;;;13.80;99.90;;;;;;5051892;28;19917;-81
2021/10/03 09:41:14;;;;;;;;;;;13.90;99.90;;;;;;5050487;28;19921;-81
2021/10/03 09:43:42;;;;;;;;;;;13.90;99.90;;;;;;5034343;28;19920;-82
2021/10/03 09:46:08;;;;;;;;;;;13.90;99.90;;;;;;5033462;28;19913;-81
2021/10/03 09:48:47;;;;;;;;;;;13.90;99.90;;;;;;5034335;28;19936;-81
2021/10/03 09:51:13;;;;;;;;;;;13.90;99.90;;;;;;5035700;28;20258;-81
2021/10/03 09:53:39;;;;;;;;;;;13.90;99.90;;;;;;5035385;28;19913;-81
2021/10/03 09:56:04;;;;;;;;;;;13.90;99.90;;;;;;5041924;28;21407;-81
2021/10/03 09:58:30;;;;;;;;;;;13.90;99.90;;;;;;5036141;28;20288;-82
2021/10/03 10:00:56;;;;;;;;;;;13.90;99.90;;;;;;5034284;28;19913;-81
2021/10/03 10:03:22;;;;;;;;;;;14.00;99.90;;;;;;5033560;28;20349;-81
2021/10/03 10:05:49;;;;;;;;;;;14.00;99.90;;;;;;5032791;28;19979;-81
2021/10/03 10:08:14;;;;;;;;;;;14.10;99.90;;;;;;5041095;28;19921;-82
2021/10/03 10:10:40;;;;;;;;;;;14.10;99.90;;;;;;5043431;28;19917;-81
2021/10/03 10:13:11;;;;;;;;;;;14.10;99.90;;;;;;5037304;28;19909;-81
2021/10/03 10:15:36;;;;;;;;;;;14.10;99.90;;;;;;5038949;28;19913;-81
2021/10/03 10:18:22;;;;;;;;;;;14.20;99.90;;;;;;5040089;28;19916;-81
2021/10/03 10:20:48;;;;;;;;;;;14.20;99.90;;;;;;5055552;28;19916;-81
2021/10/03 10:23:16;;;;;;;;;;;14.20;99.90;;;;;;5059049;28;19909;-81
2021/10/03 10:25:43;;;;;;;;;;;14.20;99.90;;;;;;5054058;28;19932;-81
2021/10/03 10:28:12;;;;;;;;;;;14.20;99.90;;;;;;5058281;28;19908;-81
2021/10/03 10:30:58;;;;;;;;;;;14.20;99.90;;;;;;5058269;28;19902;-81
2021/10/03 10:33:24;;;;;;;;;;;14.30;99.90;;;;;;5066100;28;19902;-81
2021/10/03 10:36:09;;;;;;;;;;;14.30;99.90;;;;;;5062179;28;19913;-81
2021/10/03 10:38:35;;;;;;;;;;;14.30;99.90;;;;;;5062979;28;19959;-83
2021/10/03 10:41:20;;;;;;;;;;;14.40;99.90;;;;;;5066769;28;19925;-82
2021/10/03 10:43:46;;;;;;;;;;;14.40;99.90;;;;;;5061280;28;19905;-82
2021/10/03 10:46:31;;;;;;;;;;;14.40;99.90;;;;;;5071002;28;19933;-82
2021/10/03 10:49:16;;;;;;;;;;;14.40;99.90;;;;;;5066636;28;19939;-82
2021/10/03 10:51:41;;;;;;;;;;;14.30;99.90;;;;;;5063650;28;19921;-81
2021/10/03 10:54:14;;;;;;;;;;;14.30;99.90;;;;;;5061236;28;19901;-81
2021/10/03 10:56:39;;;;;;;;;;;14.30;99.90;;;;;;5071389;28;19925;-80
2021/10/03 10:59:05;;;;;;;;;;;14.30;99.90;;;;;;5065480;28;19931;-79
2021/10/03 11:01:30;;;;;;;;;;;14.30;99.90;;;;;;5051338;28;19913;-79
2021/10/03 11:03:57;;;;;;;;;;;14.30;99.90;;;;;;5042372;28;19920;-79
2021/10/03 11:06:22;;;;;;;;;;;14.30;99.90;;;;;;5043322;28;19952;-79
2021/10/03 11:08:58;;;;;;;;;;;14.30;99.90;;;;;;5043201;28;19990;-79
2021/10/03 11:11:23;;;;;;;;;;;14.30;99.90;;;;;;5047833;28;19913;-78
2021/10/03 11:13:50;;;;;;;;;;;14.30;99.90;;;;;;5049005;28;19917;-79
2021/10/03 11:16:28;;;;;;;;;;;14.20;99.90;;;;;;5057244;28;19992;-79
2021/10/03 11:18:53;;;;;;;;;;;14.20;99.90;;;;;;5045256;28;19913;-79
2021/10/03 11:21:29;;;;;;;;;;;14.30;99.90;;;;;;5056762;28;19913;-79
2021/10/03 11:23:55;;;;;;;;;;;14.40;99.90;;;;;;5052785;28;20345;-79
2021/10/03 11:26:23;;;;;;;;;;;14.40;99.90;;;;;;5036717;28;20451;-79
2021/10/03 11:28:56;;;;;;;;;;;14.40;99.90;;;;;;5043140;28;19920;-79
2021/10/03 11:31:45;;;;;;;;;;;14.40;99.90;;;;;;5056685;28;19951;-80
2021/10/03 11:34:23;;;;;;;;;;;14.40;99.90;;;;;;5036607;28;19913;-80
2021/10/03 11:36:49;;;;;;;;;;;14.40;99.90;;;;;;5047390;28;19913;-80
2021/10/03 11:39:15;;;;;;;;;;;14.40;99.90;;;;;;5038321;28;19921;-80
2021/10/03 11:41:47;;;;;;;;;;;14.30;99.90;;;;;;5036306;28;20305;-80
2021/10/03 11:44:20;;;;;;;;;;;14.30;99.90;;;;;;5035767;28;19913;-79
2021/10/03 11:46:59;;;;;;;;;;;14.30;99.90;;;;;;5051816;28;19974;-79
2021/10/03 11:49:28;;;;;;;;;;;14.30;99.90;;;;;;5042151;28;19913;-80
2021/10/03 11:51:54;;;;;;;;;;;14.20;99.90;;;;;;5046001;28;19913;-79
2021/10/03 11:54:28;;;;;;;;;;;14.20;99.90;;;;;;5036212;28;20313;-79
2021/10/03 11:56:54;;;;;;;;;;;14.20;99.90;;;;;;5052818;28;19913;-79
2021/10/03 11:59:20;;;;;;;;;;;14.20;99.90;;;;;;5042630;28;19921;-79
2021/10/03 12:01:45;;;;;;;;;;;14.20;99.90;;;;;;5035286;28;20275;-80
2021/10/03 12:04:23;;;;;;;;;;;14.20;99.90;;;;;;5035192;28;20366;-79
2021/10/03 12:06:49;;;;;;;;;;;14.10;99.90;;;;;;5032989;28;20404;-80
2021/10/03 12:09:17;;;;;;;;;;;14.10;99.90;;;;;;5035509;28;19920;-79
2021/10/03 12:11:49;;;;;;;;;;;13.90;99.90;;;;;;5036025;28;19979;-79
2021/10/03 12:14:15;;;;;;;;;;;13.40;99.90;;;;;;5033439;28;19917;-78
2021/10/03 12:16:50;;;;;;;;;;;13.10;99.90;;;;;;5042341;28;19916;-79
2021/10/03 12:19:54;;;;;;;;;;;12.70;99.90;;;;;;5035108;28;19966;-79
2021/10/03 12:22:20;;;;;;;;;;;12.50;99.90;;;;;;5033900;28;19913;-77
2021/10/03 12:24:54;;;;;;;;;;;12.30;99.90;;;;;;5039097;28;19936;-78
2021/10/03 12:27:23;;;;;;;;;;;12.30;99.90;;;;;;5035547;28;19941;-78
2021/10/03 12:29:55;;;;;;;;;;;12.30;99.90;;;;;;5033523;28;19913;-79
2021/10/03 12:32:23;;;;;;;;;;;12.30;99.90;;;;;;5049796;28;20301;-78
2021/10/03 12:34:51;;;;;;;;;;;12.30;99.90;;;;;;5041783;28;19913;-78
2021/10/03 12:37:20;;;;;;;;;;;12.30;99.90;;;;;;5033577;28;19920;-79
2021/10/03 12:39:51;;;;;;;;;;;12.30;99.90;;;;;;5043481;28;19913;-79
2021/10/03 12:42:24;;;;;;;;;;;12.30;99.90;;;;;;5038254;28;19920;-79
2021/10/03 12:44:52;;;;;;;;;;;12.30;99.90;;;;;;5045794;28;20038;-79
2021/10/03 12:47:18;;;;;;;;;;;12.30;99.90;;;;;;5053211;28;20007;-80
2021/10/03 12:49:44;;;;;;;;;;;12.30;99.90;;;;;;5050591;28;20289;-79
2021/10/03 12:52:10;;;;;;;;;;;12.20;99.90;;;;;;5040794;28;19980;-81
2021/10/03 12:54:36;;;;;;;;;;;12.20;99.90;;;;;;5035304;28;19960;-82
2021/10/03 12:57:03;;;;;;;;;;;12.20;99.90;;;;;;5058922;28;19967;-83
2021/10/03 12:59:29;;;;;;;;;;;12.30;99.90;;;;;;5034492;28;20010;-81
2021/10/03 13:01:54;;;;;;;;;;;12.30;99.90;;;;;;5036235;28;20500;-83
2021/10/03 13:04:20;;;;;;;;;;;12.30;99.90;;;;;;5036383;28;19920;-81
2021/10/03 13:06:46;;;;;;;;;;;12.30;99.90;;;;;;5033592;28;19951;-82
2021/10/03 13:09:11;;;;;;;;;;;12.40;99.90;;;;;;5051779;28;19917;-81
2021/10/03 13:11:37;;;;;;;;;;;12.50;99.90;;;;;;5035315;28;19913;-80
2021/10/03 13:14:02;;;;;;;;;;;12.60;99.90;;;;;;5032390;28;19920;-80
2021/10/03 13:16:29;;;;;;;;;;;12.60;99.90;;;;;;5040329;28;20026;-78
2021/10/03 13:18:55;;;;;;;;;;;12.70;99.90;;;;;;5035274;28;20298;-82
2021/10/03 13:21:20;;;;;;;;;;;12.80;99.90;;;;;;5042232;28;19920;-82
2021/10/03 13:23:46;;;;;;;;;;;12.80;99.90;;;;;;5040224;28;19913;-82
2021/10/03 13:26:11;;;;;;;;;;;12.90;99.90;;;;;;5050159;28;19921;-82
2021/10/03 13:28:37;;;;;;;;;;;13.00;99.90;;;;;;5035863;28;20003;-82
2021/10/03 13:31:04;;;;;;;;;;;13.10;99.90;;;;;;5033801;28;20401;-81
2021/10/03 13:33:30;;;;;;;;;;;13.20;99.90;;;;;;5033604;28;20246;-82
2021/10/03 13:35:57;;;;;;;;;;;13.30;99.90;;;;;;5033790;28;19916;-82
2021/10/03 13:38:23;;;;;;;;;;;13.40;99.90;;;;;;5033378;28;20328;-82
2021/10/03 13:40:48;;;;;;;;;;;13.50;99.90;;;;;;5048926;28;20270;-82
2021/10/03 13:43:14;;;;;;;;;;;13.50;99.90;;;;;;5040984;28;19920;-83
2021/10/03 13:45:39;;;;;;;;;;;13.50;99.90;;;;;;5034248;28;20312;-83
2021/10/03 13:48:05;;;;;;;;;;;13.50;99.90;;;;;;5051832;28;20003;-83
2021/10/03 13:50:31;;;;;;;;;;;13.40;99.90;;;;;;5054410;28;19936;-83
2021/10/03 13:52:56;;;;;;;;;;;13.40;99.90;;;;;;5039507;28;19984;-82
2021/10/03 13:55:22;;;;;;;;;;;13.50;99.90;;;;;;5034806;28;19944;-83
2021/10/03 13:57:48;;;;;;;;;;;13.50;99.90;;;;;;5051175;28;19956;-82
2021/10/03 14:00:13;;;;;;;;;;;13.50;99.90;;;;;;5036118;28;20512;-81
2021/10/03 14:02:46;;;;;;;;;;;13.50;99.90;;;;;;5046191;28;20247;-82
2021/10/03 14:05:12;;;;;;;;;;;13.50;99.90;;;;;;5053582;28;19931;-82
2021/10/03 14:07:38;;;;;;;;;;;13.50;99.90;;;;;;5038156;28;19989;-83
2021/10/03 14:10:05;;;;;;;;;;;13.50;99.90;;;;;;5032978;28;19913;-83
2021/10/03 14:12:30;;;;;;;;;;;13.50;99.90;;;;;;5037342;28;19920;-83
2021/10/03 14:14:56;;;;;;;;;;;13.50;99.90;;;;;;5040832;28;19913;-83
2021/10/03 14:17:21;;;;;;;;;;;13.60;99.90;;;;;;5040913;28;19913;-83